createdAt,value
2022-08-09T00:02:30.121Z,67.46
2022-08-09T00:07:44.465Z,66.95
2022-08-09T00:12:58.453Z,67.70
2022-08-09T00:18:05.171Z,67.83
2022-08-09T00:23:55.112Z,67.56
2022-08-09T00:28:39.970Z,68.09
2022-08-09T00:33:50.816Z,68.22
2022-08-09T00:38:55.103Z,67.80
2022-08-09T00:44:11.382Z,68.19
2022-08-09T00:49:21.970Z,68.32
2022-08-09T00:54:31.448Z,68.06
2022-08-09T00:59:46.444Z,68.27
2022-08-09T01:05:51.643Z,68.31
2022-08-09T01:11:09.924Z,67.81
2022-08-09T01:16:23.629Z,68.03
2022-08-09T01:21:50.852Z,68.14
2022-08-09T01:27:11.921Z,68.09
2022-08-09T01:32:31.214Z,68.37
2022-08-09T01:38:07.748Z,68.14
2022-08-09T01:43:10.429Z,68.34
2022-08-09T01:48:16.166Z,68.26
2022-08-09T01:53:21.900Z,67.99
2022-08-09T01:58:31.099Z,68.14
2022-08-09T02:03:42.316Z,68.68
2022-08-09T02:08:58.476Z,68.59
2022-08-09T02:14:07.188Z,68.74
2022-08-09T02:19:12.027Z,68.49
2022-08-09T02:24:26.155Z,68.99
2022-08-09T02:29:40.884Z,68.60
2022-08-09T02:34:51.663Z,68.51
2022-08-09T02:40:09.312Z,68.76
2022-08-09T02:45:35.718Z,68.50
2022-08-09T02:50:45.596Z,69.10
2022-08-09T02:55:58.376Z,69.15
2022-08-09T03:01:04.551Z,68.78
2022-08-09T03:06:10.690Z,68.98
2022-08-09T03:12:04.330Z,69.10
2022-08-09T03:16:48.612Z,69.09
2022-08-09T03:21:52.477Z,68.84
2022-08-09T03:26:56.504Z,68.90
2022-08-09T03:32:00.977Z,68.83
2022-08-09T03:37:54.388Z,68.70
2022-08-09T03:42:30.862Z,68.65
2022-08-09T03:47:36.667Z,68.73
2022-08-09T03:52:44.965Z,68.73
2022-08-09T03:57:57.515Z,68.58
2022-08-09T04:03:11.737Z,68.26
2022-08-09T04:08:18.735Z,68.27
2022-08-09T04:14:37.008Z,68.08
2022-08-09T04:18:58.547Z,67.94
2022-08-09T04:24:02.328Z,67.62
2022-08-09T04:29:10.868Z,67.12
2022-08-09T04:34:18.887Z,67.07
2022-08-09T04:39:34.134Z,67.11
2022-08-09T04:44:49.381Z,66.65
2022-08-09T04:49:55.573Z,66.46
2022-08-09T04:55:02.605Z,66.33
2022-08-09T05:00:12.392Z,66.37
2022-08-09T05:05:31.538Z,66.17
2022-08-09T05:10:38.887Z,66.00
2022-08-09T05:15:52.113Z,66.07
2022-08-09T05:21:00.928Z,65.48
2022-08-09T05:26:04.765Z,65.35
2022-08-09T05:31:09.432Z,65.17
2022-08-09T05:36:15.538Z,64.82
2022-08-09T05:41:19.073Z,64.83
2022-08-09T05:46:22.693Z,64.45
2022-08-09T05:51:42.311Z,64.22
2022-08-09T05:56:54.501Z,63.67
2022-08-09T06:01:59.167Z,63.24
2022-08-09T06:07:03.804Z,62.49
2022-08-09T06:12:08.010Z,60.82
2022-08-09T06:17:11.453Z,57.18
2022-08-09T06:22:29.870Z,52.53
2022-08-09T06:27:42.731Z,47.73
2022-08-09T06:33:00.648Z,46.03
2022-08-09T06:38:15.946Z,47.92
2022-08-09T06:43:19.484Z,49.14
2022-08-09T06:48:26.089Z,45.33
2022-08-09T06:53:38.021Z,43.21
2022-08-09T07:00:52.795Z,45.24
2022-08-09T07:04:05.245Z,49.48
2022-08-09T07:09:53.522Z,51.11
2022-08-09T07:14:32.987Z,53.08
2022-08-09T07:19:37.676Z,54.55
2022-08-09T07:24:49.191Z,55.14
2022-08-09T07:29:53.754Z,55.77
2022-08-09T07:35:08.123Z,55.42
2022-08-09T07:40:18.694Z,55.65
2022-08-09T07:45:37.428Z,56.09
2022-08-09T07:50:52.805Z,55.93
2022-08-09T07:56:26.495Z,55.01
2022-08-09T08:01:32.914Z,54.89
2022-08-09T08:06:37.547Z,55.14
2022-08-09T08:12:25.040Z,55.34
2022-08-09T08:17:52.128Z,55.74
2022-08-09T08:22:50.630Z,54.87
2022-08-09T08:27:59.561Z,54.19
2022-08-09T08:33:04.427Z,54.11
2022-08-09T08:38:11.539Z,54.17
2022-08-09T08:43:17.302Z,52.57
2022-08-09T08:48:31.133Z,51.96
2022-08-09T08:53:37.311Z,51.25
2022-08-09T08:58:44.400Z,51.42
2022-08-09T09:03:50.987Z,51.84
2022-08-09T09:08:59.477Z,51.46
2022-08-09T09:14:18.356Z,51.68
2022-08-09T09:19:37.364Z,51.05
2022-08-09T09:24:49.385Z,51.22
2022-08-09T09:30:13.844Z,51.02
2022-08-09T09:35:18.726Z,50.99
2022-08-09T09:40:46.131Z,50.55
2022-08-09T09:45:57.450Z,50.20
2022-08-09T09:51:26.204Z,49.76
2022-08-09T09:56:53.373Z,49.82
2022-08-09T10:02:08.963Z,49.84
2022-08-09T10:07:27.024Z,50.03
2022-08-09T10:12:43.840Z,50.19
2022-08-09T10:17:56.711Z,50.40
2022-08-09T10:23:22.244Z,50.46
2022-08-09T10:28:25.977Z,50.18
2022-08-09T10:34:10.231Z,50.29
2022-08-09T10:39:00.017Z,50.47
2022-08-09T10:44:04.550Z,50.58
2022-08-09T10:49:42.436Z,50.11
2022-08-09T10:54:54.824Z,50.45
2022-08-09T11:00:01.711Z,50.93
2022-08-09T11:05:25.116Z,50.37
2022-08-09T11:10:47.051Z,50.83
2022-08-09T11:16:35.491Z,50.82
2022-08-09T11:22:19.047Z,51.00
2022-08-09T11:28:02.297Z,50.86
2022-08-09T11:33:40.670Z,50.94
2022-08-09T11:39:01.413Z,51.09
2022-08-09T11:44:05.076Z,51.08
2022-08-09T11:49:08.532Z,51.36
2022-08-09T11:54:28.485Z,51.48
2022-08-09T11:59:37.976Z,51.56
2022-08-09T12:04:41.923Z,52.06
2022-08-09T12:09:50.848Z,51.42
2022-08-09T12:15:08.356Z,51.72
2022-08-09T12:20:21.568Z,51.83
2022-08-09T12:25:36.210Z,51.59
2022-08-09T12:30:41.416Z,52.15
2022-08-09T12:35:45.934Z,52.00
2022-08-09T12:40:54.088Z,52.02
2022-08-09T12:46:00.988Z,52.48
2022-08-09T12:51:04.552Z,52.32
2022-08-09T12:56:39.668Z,52.51
2022-08-09T13:01:50.187Z,52.56
2022-08-09T13:06:54.102Z,53.12
2022-08-09T13:12:03.855Z,53.46
2022-08-09T13:17:21.853Z,53.86
2022-08-09T13:23:05.781Z,54.21
2022-08-09T13:28:18.934Z,54.71
2022-08-09T13:33:53.496Z,54.62
2022-08-09T13:41:17.809Z,54.97
2022-08-09T13:44:25.066Z,55.16
2022-08-09T13:49:37.981Z,55.46
2022-08-09T13:54:59.902Z,55.03
2022-08-09T14:00:13.861Z,55.83
2022-08-09T14:05:58.863Z,55.63
2022-08-09T14:10:52.275Z,55.89
2022-08-09T14:16:10.241Z,55.89
2022-08-09T14:21:15.453Z,56.29
2022-08-09T14:26:19.457Z,55.92
2022-08-09T14:31:36.199Z,56.01
2022-08-09T14:36:48.915Z,56.08
2022-08-09T14:41:52.679Z,56.35
2022-08-09T14:47:12.514Z,56.54
2022-08-09T14:52:19.516Z,57.05
2022-08-09T14:57:23.287Z,57.47
2022-08-09T15:02:36.164Z,57.10
2022-08-09T15:07:41.204Z,57.26
2022-08-09T15:12:49.840Z,57.56
2022-08-09T15:17:53.495Z,57.76
2022-08-09T15:23:02.951Z,58.05
2022-08-09T15:28:27.954Z,57.95
2022-08-09T15:34:17.281Z,58.35
2022-08-09T15:38:56.456Z,58.37
2022-08-09T15:44:01.988Z,58.76
2022-08-09T15:49:22.975Z,58.90
2022-08-09T15:54:44.715Z,59.17
2022-08-09T15:59:52.581Z,59.12
2022-08-09T16:05:02.404Z,59.29
2022-08-09T16:10:17.262Z,59.27
2022-08-09T16:16:11.573Z,59.40
2022-08-09T16:20:59.943Z,59.52
2022-08-09T16:26:06.846Z,59.68
2022-08-09T16:32:10.370Z,60.13
2022-08-09T16:36:46.713Z,60.30
2022-08-09T16:42:04.125Z,60.59
2022-08-09T16:48:39.302Z,60.95
2022-08-09T16:52:32.475Z,61.12
2022-08-09T16:58:09.194Z,61.53
2022-08-09T17:02:59.404Z,61.85
2022-08-09T17:08:46.216Z,61.73
2022-08-09T17:13:26.687Z,61.59
2022-08-09T17:18:38.049Z,61.81
2022-08-09T17:24:27.489Z,61.93
2022-08-09T17:29:11.668Z,61.86
2022-08-09T17:35:01.350Z,62.10
2022-08-09T17:39:53.505Z,62.32
2022-08-09T17:44:58.620Z,62.56
2022-08-09T17:50:17.348Z,62.34
2022-08-09T17:55:47.279Z,62.19
2022-08-09T18:00:56.412Z,62.38
2022-08-09T18:06:01.884Z,62.54
2022-08-09T18:11:05.588Z,62.86
2022-08-09T18:16:12.020Z,62.93
2022-08-09T18:21:22.932Z,62.99
2022-08-09T18:26:27.741Z,63.10
2022-08-09T18:31:32.489Z,63.17
2022-08-09T18:36:55.138Z,63.04
2022-08-09T18:42:01.521Z,63.03
2022-08-09T18:47:11.280Z,63.17
2022-08-09T18:52:34.675Z,63.27
2022-08-09T18:57:43.431Z,63.39
2022-08-09T19:02:49.885Z,63.29
2022-08-09T19:08:03.883Z,63.66
2022-08-09T19:13:20.369Z,63.29
2022-08-09T19:18:33.839Z,63.39
2022-08-09T19:24:32.674Z,63.82
2022-08-09T19:29:15.227Z,64.01
2022-08-09T19:34:24.465Z,64.27
2022-08-09T19:39:42.851Z,64.04
2022-08-09T19:44:57.877Z,64.10
2022-08-09T19:50:06.716Z,64.18
2022-08-09T19:55:31.043Z,64.30
2022-08-09T20:00:48.402Z,64.51
2022-08-09T20:05:52.253Z,64.72
2022-08-09T20:10:55.888Z,64.45
2022-08-09T20:16:37.028Z,64.77
2022-08-09T20:21:40.747Z,64.55
2022-08-09T20:26:48.780Z,64.57
2022-08-09T20:32:29.378Z,64.70
2022-08-09T20:37:17.334Z,64.97
2022-08-09T20:42:25.127Z,65.21
2022-08-09T20:47:45.775Z,64.97
2022-08-09T20:52:51.248Z,65.43
2022-08-09T20:58:07.774Z,65.57
2022-08-09T21:03:11.932Z,65.63
2022-08-09T21:08:23.068Z,65.56
2022-08-09T21:13:58.980Z,65.64
2022-08-09T21:20:18.156Z,65.56
2022-08-09T21:24:28.948Z,65.44
2022-08-09T21:29:49.112Z,65.67
2022-08-09T21:34:54.279Z,65.93
2022-08-09T21:39:58.231Z,66.10
2022-08-09T21:45:02.185Z,65.85
2022-08-09T21:50:06.363Z,66.00
2022-08-09T21:55:10.018Z,66.57
2022-08-09T22:00:31.767Z,66.50
2022-08-09T22:05:41.992Z,66.45
2022-08-09T22:11:00.763Z,66.40
2022-08-09T22:16:11.858Z,66.33
2022-08-09T22:21:21.960Z,66.65
2022-08-09T22:26:34.742Z,66.52
2022-08-09T22:31:44.112Z,67.01
2022-08-09T22:36:57.825Z,66.99
2022-08-09T22:42:01.523Z,67.04
2022-08-09T22:48:10.396Z,67.37
2022-08-09T22:52:33.187Z,67.18
2022-08-09T22:57:44.323Z,67.47
2022-08-09T23:03:03.641Z,67.54
2022-08-09T23:08:22.380Z,68.06
2022-08-09T23:13:33.495Z,68.16
2022-08-09T23:18:37.156Z,67.94
2022-08-09T23:23:41.241Z,68.17
2022-08-09T23:28:46.598Z,68.18
2022-08-09T23:33:56.394Z,68.31
2022-08-09T23:39:00.176Z,68.49
2022-08-09T23:44:04.431Z,68.44
2022-08-09T23:49:08.037Z,68.60
2022-08-09T23:54:12.174Z,68.50
2022-08-09T23:59:16.046Z,68.36
